sensor_id;sensor_type;location;lat;lon;timestamp;P1;durP1;ratioP1;P2;durP2;ratioP2
55063;SDS011;40963;52.168;21.296;2023-12-20T00:01:00;14.30;;;7.40;;
55063;SDS011;40963;52.168;21.296;2023-12-20T00:03:25;17.42;;;8.00;;
55063;SDS011;40963;52.168;21.296;2023-12-20T00:05:51;23.90;;;8.07;;
55063;SDS011;40963;52.168;21.296;2023-12-20T00:08:17;11.27;;;6.65;;
55063;SDS011;40963;52.168;21.296;2023-12-20T00:10:43;25.33;;;8.25;;
55063;SDS011;40963;52.168;21.296;2023-12-20T00:13:09;17.60;;;8.25;;
55063;SDS011;40963;52.168;21.296;2023-12-20T00:15:35;9.50;;;5.32;;
55063;SDS011;40963;52.168;21.296;2023-12-20T00:18:00;12.48;;;7.05;;
55063;SDS011;40963;52.168;21.296;2023-12-20T00:20:26;12.02;;;6.05;;
55063;SDS011;40963;52.168;21.296;2023-12-20T00:22:53;13.63;;;7.18;;
55063;SDS011;40963;52.168;21.296;2023-12-20T00:25:25;14.20;;;6.85;;
55063;SDS011;40963;52.168;21.296;2023-12-20T00:27:50;9.40;;;6.30;;
55063;SDS011;40963;52.168;21.296;2023-12-20T00:30:16;15.60;;;7.45;;
55063;SDS011;40963;52.168;21.296;2023-12-20T00:32:42;19.05;;;7.10;;
55063;SDS011;40963;52.168;21.296;2023-12-20T00:35:14;17.95;;;6.82;;
55063;SDS011;40963;52.168;21.296;2023-12-20T00:37:40;8.82;;;4.80;;
55063;SDS011;40963;52.168;21.296;2023-12-20T00:40:06;14.40;;;7.90;;
55063;SDS011;40963;52.168;21.296;2023-12-20T00:42:32;14.38;;;6.95;;
55063;SDS011;40963;52.168;21.296;2023-12-20T00:44:58;12.25;;;6.88;;
55063;SDS011;40963;52.168;21.296;2023-12-20T00:47:24;13.02;;;6.95;;
55063;SDS011;40963;52.168;21.296;2023-12-20T00:49:50;15.98;;;6.57;;
55063;SDS011;40963;52.168;21.296;2023-12-20T00:52:16;10.48;;;5.75;;
55063;SDS011;40963;52.168;21.296;2023-12-20T00:54:42;9.75;;;4.97;;
55063;SDS011;40963;52.168;21.296;2023-12-20T00:57:08;12.90;;;5.82;;
55063;SDS011;40963;52.168;21.296;2023-12-20T00:59:34;16.42;;;7.38;;
55063;SDS011;40963;52.168;21.296;2023-12-20T01:02:00;16.88;;;6.45;;
55063;SDS011;40963;52.168;21.296;2023-12-20T01:04:25;14.27;;;6.45;;
55063;SDS011;40963;52.168;21.296;2023-12-20T01:06:51;11.32;;;6.32;;
55063;SDS011;40963;52.168;21.296;2023-12-20T01:09:17;16.77;;;6.13;;
55063;SDS011;40963;52.168;21.296;2023-12-20T01:11:43;11.73;;;6.32;;
55063;SDS011;40963;52.168;21.296;2023-12-20T01:14:09;17.13;;;6.72;;
55063;SDS011;40963;52.168;21.296;2023-12-20T01:16:35;7.82;;;4.70;;
55063;SDS011;40963;52.168;21.296;2023-12-20T01:19:00;9.48;;;5.70;;
55063;SDS011;40963;52.168;21.296;2023-12-20T01:21:26;10.48;;;5.90;;
55063;SDS011;40963;52.168;21.296;2023-12-20T01:23:51;7.15;;;4.90;;
55063;SDS011;40963;52.168;21.296;2023-12-20T01:26:17;12.57;;;5.40;;
55063;SDS011;40963;52.168;21.296;2023-12-20T01:28:43;8.05;;;5.25;;
55063;SDS011;40963;52.168;21.296;2023-12-20T01:31:08;9.77;;;5.95;;
55063;SDS011;40963;52.168;21.296;2023-12-20T01:33:35;6.93;;;4.18;;
55063;SDS011;40963;52.168;21.296;2023-12-20T01:36:01;10.45;;;5.70;;
55063;SDS011;40963;52.168;21.296;2023-12-20T01:38:26;8.82;;;5.35;;
55063;SDS011;40963;52.168;21.296;2023-12-20T01:40:52;9.60;;;4.78;;
55063;SDS011;40963;52.168;21.296;2023-12-20T01:43:17;9.73;;;5.32;;
55063;SDS011;40963;52.168;21.296;2023-12-20T01:45:43;10.38;;;4.47;;
55063;SDS011;40963;52.168;21.296;2023-12-20T01:48:09;8.15;;;5.00;;
55063;SDS011;40963;52.168;21.296;2023-12-20T01:50:36;10.25;;;4.82;;
55063;SDS011;40963;52.168;21.296;2023-12-20T01:53:03;8.98;;;4.88;;
55063;SDS011;40963;52.168;21.296;2023-12-20T01:55:31;4.78;;;3.20;;
55063;SDS011;40963;52.168;21.296;2023-12-20T01:57:58;8.00;;;5.13;;
55063;SDS011;40963;52.168;21.296;2023-12-20T02:00:24;8.90;;;4.85;;
55063;SDS011;40963;52.168;21.296;2023-12-20T02:02:52;7.57;;;4.75;;
55063;SDS011;40963;52.168;21.296;2023-12-20T02:05:20;9.05;;;4.82;;
55063;SDS011;40963;52.168;21.296;2023-12-20T02:07:46;9.43;;;5.00;;
55063;SDS011;40963;52.168;21.296;2023-12-20T02:10:13;11.45;;;5.10;;
55063;SDS011;40963;52.168;21.296;2023-12-20T02:12:40;11.50;;;5.43;;
55063;SDS011;40963;52.168;21.296;2023-12-20T02:15:06;6.38;;;4.25;;
55063;SDS011;40963;52.168;21.296;2023-12-20T02:17:32;7.00;;;4.13;;
55063;SDS011;40963;52.168;21.296;2023-12-20T02:19:58;7.30;;;4.13;;
55063;SDS011;40963;52.168;21.296;2023-12-20T02:22:23;9.15;;;4.75;;
55063;SDS011;40963;52.168;21.296;2023-12-20T02:24:49;9.65;;;4.15;;
55063;SDS011;40963;52.168;21.296;2023-12-20T02:27:15;6.35;;;4.20;;
55063;SDS011;40963;52.168;21.296;2023-12-20T02:29:42;5.90;;;3.55;;
55063;SDS011;40963;52.168;21.296;2023-12-20T02:32:08;4.30;;;2.60;;
55063;SDS011;40963;52.168;21.296;2023-12-20T02:34:34;6.30;;;4.03;;
55063;SDS011;40963;52.168;21.296;2023-12-20T02:36:59;10.90;;;4.82;;
55063;SDS011;40963;52.168;21.296;2023-12-20T02:39:25;5.72;;;3.42;;
55063;SDS011;40963;52.168;21.296;2023-12-20T02:41:51;5.40;;;3.05;;
55063;SDS011;40963;52.168;21.296;2023-12-20T02:44:16;4.65;;;3.28;;
55063;SDS011;40963;52.168;21.296;2023-12-20T02:46:42;6.95;;;3.95;;
55063;SDS011;40963;52.168;21.296;2023-12-20T02:49:08;6.70;;;3.40;;
55063;SDS011;40963;52.168;21.296;2023-12-20T02:51:33;8.23;;;3.88;;
55063;SDS011;40963;52.168;21.296;2023-12-20T02:53:59;7.47;;;4.18;;
55063;SDS011;40963;52.168;21.296;2023-12-20T02:56:24;10.05;;;3.90;;
55063;SDS011;40963;52.168;21.296;2023-12-20T02:58:50;7.68;;;4.15;;
55063;SDS011;40963;52.168;21.296;2023-12-20T03:01:16;6.97;;;3.85;;
55063;SDS011;40963;52.168;21.296;2023-12-20T03:03:41;11.43;;;4.15;;
55063;SDS011;40963;52.168;21.296;2023-12-20T03:06:07;5.68;;;3.50;;
55063;SDS011;40963;52.168;21.296;2023-12-20T03:08:32;5.63;;;3.47;;
55063;SDS011;40963;52.168;21.296;2023-12-20T03:10:59;4.22;;;3.58;;
55063;SDS011;40963;52.168;21.296;2023-12-20T03:13:24;9.30;;;4.75;;
55063;SDS011;40963;52.168;21.296;2023-12-20T03:15:50;8.70;;;3.90;;
55063;SDS011;40963;52.168;21.296;2023-12-20T03:18:16;5.88;;;3.47;;
55063;SDS011;40963;52.168;21.296;2023-12-20T03:20:41;5.00;;;3.25;;
55063;SDS011;40963;52.168;21.296;2023-12-20T03:23:07;5.22;;;3.65;;
55063;SDS011;40963;52.168;21.296;2023-12-20T03:25:33;5.85;;;3.22;;
55063;SDS011;40963;52.168;21.296;2023-12-20T03:27:58;5.20;;;2.88;;
55063;SDS011;40963;52.168;21.296;2023-12-20T03:30:25;7.18;;;3.55;;
55063;SDS011;40963;52.168;21.296;2023-12-20T03:32:50;4.43;;;3.33;;
55063;SDS011;40963;52.168;21.296;2023-12-20T03:35:16;5.55;;;3.10;;
55063;SDS011;40963;52.168;21.296;2023-12-20T03:37:42;5.32;;;3.22;;
55063;SDS011;40963;52.168;21.296;2023-12-20T03:40:07;4.40;;;2.95;;
55063;SDS011;40963;52.168;21.296;2023-12-20T03:42:33;4.78;;;3.70;;
55063;SDS011;40963;52.168;21.296;2023-12-20T03:44:59;5.57;;;3.72;;
55063;SDS011;40963;52.168;21.296;2023-12-20T03:47:25;4.45;;;2.72;;
55063;SDS011;40963;52.168;21.296;2023-12-20T03:49:50;6.53;;;3.38;;
55063;SDS011;40963;52.168;21.296;2023-12-20T03:52:16;4.68;;;2.60;;
55063;SDS011;40963;52.168;21.296;2023-12-20T03:54:41;3.67;;;2.70;;
55063;SDS011;40963;52.168;21.296;2023-12-20T03:57:07;6.13;;;3.20;;
55063;SDS011;40963;52.168;21.296;2023-12-20T03:59:36;5.47;;;3.30;;
55063;SDS011;40963;52.168;21.296;2023-12-20T04:02:02;5.78;;;3.80;;
55063;SDS011;40963;52.168;21.296;2023-12-20T04:04:29;5.00;;;2.72;;
55063;SDS011;40963;52.168;21.296;2023-12-20T04:06:54;4.18;;;2.83;;
55063;SDS011;40963;52.168;21.296;2023-12-20T04:09:20;6.85;;;3.15;;
55063;SDS011;40963;52.168;21.296;2023-12-20T04:11:46;6.45;;;2.70;;
55063;SDS011;40963;52.168;21.296;2023-12-20T04:14:14;13.20;;;3.55;;
55063;SDS011;40963;52.168;21.296;2023-12-20T04:16:40;4.68;;;3.17;;
55063;SDS011;40963;52.168;21.296;2023-12-20T04:19:05;4.07;;;3.03;;
55063;SDS011;40963;52.168;21.296;2023-12-20T04:21:31;7.68;;;3.25;;
55063;SDS011;40963;52.168;21.296;2023-12-20T04:23:57;5.50;;;3.55;;
55063;SDS011;40963;52.168;21.296;2023-12-20T04:26:22;4.55;;;3.20;;
55063;SDS011;40963;52.168;21.296;2023-12-20T04:28:48;4.93;;;3.30;;
55063;SDS011;40963;52.168;21.296;2023-12-20T04:31:13;5.75;;;2.55;;
55063;SDS011;40963;52.168;21.296;2023-12-20T04:33:39;5.78;;;3.10;;
55063;SDS011;40963;52.168;21.296;2023-12-20T04:36:05;6.05;;;3.08;;
55063;SDS011;40963;52.168;21.296;2023-12-20T04:38:30;5.68;;;2.90;;
55063;SDS011;40963;52.168;21.296;2023-12-20T04:40:56;6.45;;;3.17;;
55063;SDS011;40963;52.168;21.296;2023-12-20T04:43:22;5.00;;;3.20;;
55063;SDS011;40963;52.168;21.296;2023-12-20T04:45:47;5.70;;;3.22;;
55063;SDS011;40963;52.168;21.296;2023-12-20T04:48:13;5.50;;;2.58;;
55063;SDS011;40963;52.168;21.296;2023-12-20T04:50:41;6.10;;;3.00;;
55063;SDS011;40963;52.168;21.296;2023-12-20T04:53:07;4.80;;;3.30;;
55063;SDS011;40963;52.168;21.296;2023-12-20T04:55:32;9.10;;;3.00;;
55063;SDS011;40963;52.168;21.296;2023-12-20T04:57:58;4.97;;;2.95;;
55063;SDS011;40963;52.168;21.296;2023-12-20T05:00:24;7.13;;;2.92;;
55063;SDS011;40963;52.168;21.296;2023-12-20T05:02:49;5.53;;;3.35;;
55063;SDS011;40963;52.168;21.296;2023-12-20T05:05:15;9.68;;;3.40;;
55063;SDS011;40963;52.168;21.296;2023-12-20T05:07:42;6.00;;;3.00;;
55063;SDS011;40963;52.168;21.296;2023-12-20T05:10:09;7.57;;;3.38;;
55063;SDS011;40963;52.168;21.296;2023-12-20T05:12:35;7.22;;;3.30;;
55063;SDS011;40963;52.168;21.296;2023-12-20T05:15:01;5.25;;;3.10;;
55063;SDS011;40963;52.168;21.296;2023-12-20T05:17:26;3.72;;;2.70;;
55063;SDS011;40963;52.168;21.296;2023-12-20T05:19:52;6.03;;;3.42;;
55063;SDS011;40963;52.168;21.296;2023-12-20T05:22:18;5.18;;;3.05;;
55063;SDS011;40963;52.168;21.296;2023-12-20T05:24:44;11.15;;;3.28;;
55063;SDS011;40963;52.168;21.296;2023-12-20T05:27:10;7.53;;;2.85;;
55063;SDS011;40963;52.168;21.296;2023-12-20T05:29:36;5.32;;;3.45;;
55063;SDS011;40963;52.168;21.296;2023-12-20T05:32:02;5.55;;;2.80;;
55063;SDS011;40963;52.168;21.296;2023-12-20T05:34:29;7.68;;;3.40;;
55063;SDS011;40963;52.168;21.296;2023-12-20T05:36:55;5.15;;;3.17;;
55063;SDS011;40963;52.168;21.296;2023-12-20T05:39:21;7.68;;;3.15;;
55063;SDS011;40963;52.168;21.296;2023-12-20T05:41:47;5.43;;;3.08;;
55063;SDS011;40963;52.168;21.296;2023-12-20T05:44:13;6.00;;;3.22;;
55063;SDS011;40963;52.168;21.296;2023-12-20T05:46:38;5.20;;;3.45;;
55063;SDS011;40963;52.168;21.296;2023-12-20T05:49:05;9.10;;;3.75;;
55063;SDS011;40963;52.168;21.296;2023-12-20T05:51:31;4.50;;;3.08;;
55063;SDS011;40963;52.168;21.296;2023-12-20T05:53:56;3.88;;;3.35;;
55063;SDS011;40963;52.168;21.296;2023-12-20T05:56:22;4.97;;;3.85;;
55063;SDS011;40963;52.168;21.296;2023-12-20T05:58:47;6.10;;;3.65;;
55063;SDS011;40963;52.168;21.296;2023-12-20T06:01:16;11.20;;;4.05;;
55063;SDS011;40963;52.168;21.296;2023-12-20T06:03:44;6.43;;;3.85;;
55063;SDS011;40963;52.168;21.296;2023-12-20T06:06:13;6.32;;;4.10;;
55063;SDS011;40963;52.168;21.296;2023-12-20T06:08:39;6.20;;;3.92;;
55063;SDS011;40963;52.168;21.296;2023-12-20T06:11:05;8.85;;;4.35;;
55063;SDS011;40963;52.168;21.296;2023-12-20T06:13:31;7.25;;;4.07;;
55063;SDS011;40963;52.168;21.296;2023-12-20T06:15:57;9.55;;;3.83;;
55063;SDS011;40963;52.168;21.296;2023-12-20T06:18:22;4.47;;;3.53;;
55063;SDS011;40963;52.168;21.296;2023-12-20T06:20:49;10.05;;;3.80;;
55063;SDS011;40963;52.168;21.296;2023-12-20T06:23:15;5.35;;;3.60;;
55063;SDS011;40963;52.168;21.296;2023-12-20T06:25:40;21.52;;;3.47;;
55063;SDS011;40963;52.168;21.296;2023-12-20T06:28:06;7.70;;;4.25;;
55063;SDS011;40963;52.168;21.296;2023-12-20T06:30:31;5.63;;;3.67;;
55063;SDS011;40963;52.168;21.296;2023-12-20T06:32:58;14.52;;;4.88;;
55063;SDS011;40963;52.168;21.296;2023-12-20T06:35:24;6.63;;;4.15;;
55063;SDS011;40963;52.168;21.296;2023-12-20T06:37:49;4.03;;;2.88;;
55063;SDS011;40963;52.168;21.296;2023-12-20T06:40:15;7.97;;;3.70;;
55063;SDS011;40963;52.168;21.296;2023-12-20T06:42:41;8.02;;;4.22;;
55063;SDS011;40963;52.168;21.296;2023-12-20T06:45:07;6.90;;;4.65;;
55063;SDS011;40963;52.168;21.296;2023-12-20T06:47:33;7.35;;;4.28;;
55063;SDS011;40963;52.168;21.296;2023-12-20T06:49:58;7.55;;;4.18;;
55063;SDS011;40963;52.168;21.296;2023-12-20T06:52:24;7.50;;;4.47;;
55063;SDS011;40963;52.168;21.296;2023-12-20T06:54:50;7.45;;;4.30;;
55063;SDS011;40963;52.168;21.296;2023-12-20T06:57:16;7.32;;;4.35;;
55063;SDS011;40963;52.168;21.296;2023-12-20T06:59:42;9.63;;;4.15;;
55063;SDS011;40963;52.168;21.296;2023-12-20T07:02:11;6.53;;;4.22;;
55063;SDS011;40963;52.168;21.296;2023-12-20T07:04:39;5.97;;;3.58;;
55063;SDS011;40963;52.168;21.296;2023-12-20T07:07:05;7.65;;;4.10;;
55063;SDS011;40963;52.168;21.296;2023-12-20T07:09:32;6.43;;;3.80;;
55063;SDS011;40963;52.168;21.296;2023-12-20T07:11:58;5.65;;;3.38;;
55063;SDS011;40963;52.168;21.296;2023-12-20T07:14:23;4.90;;;3.78;;
55063;SDS011;40963;52.168;21.296;2023-12-20T07:16:49;7.07;;;4.10;;
55063;SDS011;40963;52.168;21.296;2023-12-20T07:19:15;7.43;;;3.85;;
55063;SDS011;40963;52.168;21.296;2023-12-20T07:21:40;5.93;;;4.13;;
55063;SDS011;40963;52.168;21.296;2023-12-20T07:24:06;5.55;;;4.07;;
55063;SDS011;40963;52.168;21.296;2023-12-20T07:26:32;6.80;;;4.15;;
55063;SDS011;40963;52.168;21.296;2023-12-20T07:28:59;10.85;;;4.20;;
55063;SDS011;40963;52.168;21.296;2023-12-20T07:31:24;8.02;;;4.45;;
55063;SDS011;40963;52.168;21.296;2023-12-20T07:33:50;7.97;;;4.05;;
55063;SDS011;40963;52.168;21.296;2023-12-20T07:36:15;9.40;;;4.10;;
55063;SDS011;40963;52.168;21.296;2023-12-20T07:38:41;9.43;;;4.82;;
55063;SDS011;40963;52.168;21.296;2023-12-20T07:41:09;7.35;;;3.85;;
55063;SDS011;40963;52.168;21.296;2023-12-20T07:43:35;6.45;;;4.10;;
55063;SDS011;40963;52.168;21.296;2023-12-20T07:46:05;4.95;;;3.60;;
55063;SDS011;40963;52.168;21.296;2023-12-20T07:48:31;11.38;;;4.78;;
55063;SDS011;40963;52.168;21.296;2023-12-20T07:50:58;8.60;;;4.75;;
55063;SDS011;40963;52.168;21.296;2023-12-20T07:53:24;7.90;;;4.63;;
55063;SDS011;40963;52.168;21.296;2023-12-20T07:55:50;7.63;;;4.65;;
55063;SDS011;40963;52.168;21.296;2023-12-20T07:58:17;14.48;;;5.30;;
55063;SDS011;40963;52.168;21.296;2023-12-20T08:00:43;7.35;;;4.55;;
55063;SDS011;40963;52.168;21.296;2023-12-20T08:03:09;7.43;;;4.88;;
55063;SDS011;40963;52.168;21.296;2023-12-20T08:05:34;6.60;;;4.10;;
55063;SDS011;40963;52.168;21.296;2023-12-20T08:08:00;6.07;;;4.10;;
55063;SDS011;40963;52.168;21.296;2023-12-20T08:10:25;9.23;;;4.13;;
55063;SDS011;40963;52.168;21.296;2023-12-20T08:12:54;6.18;;;4.32;;
55063;SDS011;40963;52.168;21.296;2023-12-20T08:15:20;12.65;;;4.90;;
55063;SDS011;40963;52.168;21.296;2023-12-20T08:17:45;6.50;;;3.60;;
55063;SDS011;40963;52.168;21.296;2023-12-20T08:20:11;6.07;;;3.35;;
55063;SDS011;40963;52.168;21.296;2023-12-20T08:22:37;10.40;;;5.35;;
55063;SDS011;40963;52.168;21.296;2023-12-20T08:25:02;7.88;;;4.40;;
55063;SDS011;40963;52.168;21.296;2023-12-20T08:27:28;6.65;;;4.32;;
55063;SDS011;40963;52.168;21.296;2023-12-20T08:29:56;10.05;;;4.35;;
55063;SDS011;40963;52.168;21.296;2023-12-20T08:32:21;8.77;;;4.43;;
55063;SDS011;40963;52.168;21.296;2023-12-20T08:34:49;7.63;;;4.15;;
55063;SDS011;40963;52.168;21.296;2023-12-20T08:37:15;8.43;;;4.20;;
55063;SDS011;40963;52.168;21.296;2023-12-20T08:39:41;7.40;;;4.30;;
55063;SDS011;40963;52.168;21.296;2023-12-20T08:42:08;5.15;;;3.63;;
55063;SDS011;40963;52.168;21.296;2023-12-20T08:44:34;7.20;;;4.40;;
55063;SDS011;40963;52.168;21.296;2023-12-20T08:46:59;6.95;;;4.50;;
55063;SDS011;40963;52.168;21.296;2023-12-20T08:49:25;6.40;;;3.97;;
55063;SDS011;40963;52.168;21.296;2023-12-20T08:51:53;5.10;;;3.10;;
55063;SDS011;40963;52.168;21.296;2023-12-20T08:54:19;5.55;;;3.88;;
55063;SDS011;40963;52.168;21.296;2023-12-20T08:56:45;5.85;;;3.75;;
55063;SDS011;40963;52.168;21.296;2023-12-20T08:59:11;6.32;;;3.58;;
55063;SDS011;40963;52.168;21.296;2023-12-20T09:01:37;7.35;;;4.10;;
55063;SDS011;40963;52.168;21.296;2023-12-20T09:04:03;6.45;;;3.45;;
55063;SDS011;40963;52.168;21.296;2023-12-20T09:06:29;6.20;;;3.90;;
55063;SDS011;40963;52.168;21.296;2023-12-20T09:08:54;7.25;;;3.63;;
55063;SDS011;40963;52.168;21.296;2023-12-20T09:11:20;5.07;;;3.65;;
55063;SDS011;40963;52.168;21.296;2023-12-20T09:13:45;8.07;;;4.07;;
55063;SDS011;40963;52.168;21.296;2023-12-20T09:16:11;7.28;;;3.38;;
55063;SDS011;40963;52.168;21.296;2023-12-20T09:18:38;7.60;;;3.67;;
55063;SDS011;40963;52.168;21.296;2023-12-20T09:21:03;5.60;;;3.45;;
55063;SDS011;40963;52.168;21.296;2023-12-20T09:23:29;5.80;;;3.78;;
55063;SDS011;40963;52.168;21.296;2023-12-20T09:25:54;6.18;;;3.67;;
55063;SDS011;40963;52.168;21.296;2023-12-20T09:28:20;7.65;;;3.88;;
55063;SDS011;40963;52.168;21.296;2023-12-20T09:30:46;5.85;;;4.05;;
55063;SDS011;40963;52.168;21.296;2023-12-20T09:33:12;9.20;;;4.47;;
55063;SDS011;40963;52.168;21.296;2023-12-20T09:35:39;5.10;;;3.67;;
55063;SDS011;40963;52.168;21.296;2023-12-20T09:38:05;24.23;;;4.18;;
55063;SDS011;40963;52.168;21.296;2023-12-20T09:40:43;6.75;;;3.95;;
55063;SDS011;40963;52.168;21.296;2023-12-20T09:43:13;5.55;;;3.50;;
55063;SDS011;40963;52.168;21.296;2023-12-20T09:45:45;6.47;;;4.13;;
55063;SDS011;40963;52.168;21.296;2023-12-20T09:48:12;4.28;;;3.17;;
55063;SDS011;40963;52.168;21.296;2023-12-20T09:50:39;8.15;;;4.82;;
55063;SDS011;40963;52.168;21.296;2023-12-20T09:53:05;6.70;;;3.83;;
55063;SDS011;40963;52.168;21.296;2023-12-20T09:55:35;16.38;;;5.32;;
55063;SDS011;40963;52.168;21.296;2023-12-20T09:58:01;8.95;;;4.38;;
55063;SDS011;40963;52.168;21.296;2023-12-20T10:00:27;6.88;;;4.22;;
55063;SDS011;40963;52.168;21.296;2023-12-20T10:02:56;7.22;;;3.25;;
55063;SDS011;40963;52.168;21.296;2023-12-20T10:05:33;7.72;;;4.72;;
55063;SDS011;40963;52.168;21.296;2023-12-20T10:08:00;8.73;;;5.28;;
55063;SDS011;40963;52.168;21.296;2023-12-20T10:10:47;7.10;;;4.57;;
55063;SDS011;40963;52.168;21.296;2023-12-20T10:13:31;7.72;;;4.38;;
55063;SDS011;40963;52.168;21.296;2023-12-20T10:15:57;6.95;;;3.80;;
55063;SDS011;40963;52.168;21.296;2023-12-20T10:18:30;7.75;;;3.35;;
55063;SDS011;40963;52.168;21.296;2023-12-20T10:21:00;6.70;;;4.25;;
55063;SDS011;40963;52.168;21.296;2023-12-20T10:23:28;7.93;;;4.82;;
55063;SDS011;40963;52.168;21.296;2023-12-20T10:26:00;7.00;;;4.55;;
55063;SDS011;40963;52.168;21.296;2023-12-20T10:28:26;6.93;;;4.35;;
55063;SDS011;40963;52.168;21.296;2023-12-20T10:30:57;4.57;;;3.75;;
55063;SDS011;40963;52.168;21.296;2023-12-20T10:33:26;6.53;;;3.83;;
55063;SDS011;40963;52.168;21.296;2023-12-20T10:35:57;5.90;;;3.47;;
55063;SDS011;40963;52.168;21.296;2023-12-20T10:38:23;8.23;;;4.20;;
55063;SDS011;40963;52.168;21.296;2023-12-20T10:40:48;5.82;;;3.92;;
55063;SDS011;40963;52.168;21.296;2023-12-20T10:43:19;9.15;;;3.63;;
55063;SDS011;40963;52.168;21.296;2023-12-20T10:45:45;10.13;;;3.95;;
55063;SDS011;40963;52.168;21.296;2023-12-20T10:48:11;5.72;;;3.67;;
55063;SDS011;40963;52.168;21.296;2023-12-20T10:50:37;5.97;;;3.80;;
55063;SDS011;40963;52.168;21.296;2023-12-20T10:53:06;7.88;;;3.90;;
55063;SDS011;40963;52.168;21.296;2023-12-20T10:55:32;7.90;;;3.67;;
55063;SDS011;40963;52.168;21.296;2023-12-20T10:58:04;7.25;;;3.60;;
55063;SDS011;40963;52.168;21.296;2023-12-20T11:00:32;4.60;;;3.33;;
55063;SDS011;40963;52.168;21.296;2023-12-20T11:03:04;6.15;;;3.20;;
55063;SDS011;40963;52.168;21.296;2023-12-20T11:08:39;5.53;;;3.17;;
55063;SDS011;40963;52.168;21.296;2023-12-20T11:11:13;3.70;;;3.05;;
55063;SDS011;40963;52.168;21.296;2023-12-20T11:14:01;3.40;;;2.53;;
55063;SDS011;40963;52.168;21.296;2023-12-20T11:16:33;5.22;;;3.17;;
55063;SDS011;40963;52.168;21.296;2023-12-20T11:19:05;5.47;;;3.20;;
55063;SDS011;40963;52.168;21.296;2023-12-20T11:21:31;4.97;;;3.28;;
55063;SDS011;40963;52.168;21.296;2023-12-20T11:23:56;4.88;;;3.55;;
55063;SDS011;40963;52.168;21.296;2023-12-20T11:26:22;4.68;;;2.88;;
55063;SDS011;40963;52.168;21.296;2023-12-20T11:28:53;3.63;;;2.75;;
55063;SDS011;40963;52.168;21.296;2023-12-20T11:31:19;5.97;;;3.10;;
55063;SDS011;40963;52.168;21.296;2023-12-20T11:33:45;7.20;;;3.42;;
55063;SDS011;40963;52.168;21.296;2023-12-20T11:36:18;4.70;;;3.35;;
55063;SDS011;40963;52.168;21.296;2023-12-20T11:39:06;5.55;;;3.20;;
55063;SDS011;40963;52.168;21.296;2023-12-20T11:41:33;6.95;;;3.47;;
55063;SDS011;40963;52.168;21.296;2023-12-20T11:43:59;4.68;;;3.05;;
55063;SDS011;40963;52.168;21.296;2023-12-20T11:46:26;7.28;;;3.25;;
55063;SDS011;40963;52.168;21.296;2023-12-20T11:48:51;4.53;;;3.28;;
55063;SDS011;40963;52.168;21.296;2023-12-20T11:51:17;5.10;;;3.35;;
55063;SDS011;40963;52.168;21.296;2023-12-20T11:53:43;4.20;;;3.05;;
55063;SDS011;40963;52.168;21.296;2023-12-20T11:56:08;4.88;;;3.00;;
55063;SDS011;40963;52.168;21.296;2023-12-20T11:58:35;6.18;;;2.90;;
55063;SDS011;40963;52.168;21.296;2023-12-20T12:01:01;7.65;;;2.45;;
55063;SDS011;40963;52.168;21.296;2023-12-20T12:03:32;5.00;;;3.13;;
55063;SDS011;40963;52.168;21.296;2023-12-20T12:05:57;5.60;;;3.15;;
55063;SDS011;40963;52.168;21.296;2023-12-20T12:08:23;5.15;;;3.00;;
55063;SDS011;40963;52.168;21.296;2023-12-20T12:10:49;4.85;;;3.42;;
55063;SDS011;40963;52.168;21.296;2023-12-20T12:13:14;5.30;;;3.05;;
55063;SDS011;40963;52.168;21.296;2023-12-20T12:15:40;4.10;;;3.05;;
55063;SDS011;40963;52.168;21.296;2023-12-20T12:18:07;5.70;;;3.15;;
55063;SDS011;40963;52.168;21.296;2023-12-20T12:20:33;5.18;;;3.10;;
55063;SDS011;40963;52.168;21.296;2023-12-20T12:23:02;4.50;;;2.67;;
55063;SDS011;40963;52.168;21.296;2023-12-20T12:25:30;7.90;;;3.15;;
55063;SDS011;40963;52.168;21.296;2023-12-20T12:27:57;6.18;;;3.08;;
55063;SDS011;40963;52.168;21.296;2023-12-20T12:30:23;4.30;;;2.72;;
55063;SDS011;40963;52.168;21.296;2023-12-20T12:32:50;3.80;;;3.03;;
55063;SDS011;40963;52.168;21.296;2023-12-20T12:35:17;4.60;;;2.67;;
55063;SDS011;40963;52.168;21.296;2023-12-20T12:37:43;4.10;;;3.28;;
55063;SDS011;40963;52.168;21.296;2023-12-20T12:40:16;2.97;;;2.22;;
55063;SDS011;40963;52.168;21.296;2023-12-20T12:42:43;5.45;;;3.03;;
55063;SDS011;40963;52.168;21.296;2023-12-20T12:45:09;4.57;;;2.83;;
55063;SDS011;40963;52.168;21.296;2023-12-20T12:47:36;6.78;;;3.33;;
55063;SDS011;40963;52.168;21.296;2023-12-20T12:50:02;3.45;;;2.33;;
55063;SDS011;40963;52.168;21.296;2023-12-20T12:52:28;3.92;;;2.72;;
55063;SDS011;40963;52.168;21.296;2023-12-20T12:54:55;4.28;;;2.85;;
55063;SDS011;40963;52.168;21.296;2023-12-20T12:57:20;5.90;;;2.72;;
55063;SDS011;40963;52.168;21.296;2023-12-20T12:59:46;3.20;;;1.95;;
55063;SDS011;40963;52.168;21.296;2023-12-20T13:02:12;3.55;;;2.85;;
55063;SDS011;40963;52.168;21.296;2023-12-20T13:04:39;3.42;;;2.05;;
55063;SDS011;40963;52.168;21.296;2023-12-20T13:07:06;5.47;;;2.80;;
55063;SDS011;40963;52.168;21.296;2023-12-20T13:09:32;7.68;;;2.90;;
55063;SDS011;40963;52.168;21.296;2023-12-20T13:11:57;4.15;;;3.10;;
55063;SDS011;40963;52.168;21.296;2023-12-20T13:14:24;4.15;;;2.67;;
55063;SDS011;40963;52.168;21.296;2023-12-20T13:16:49;3.40;;;1.95;;
55063;SDS011;40963;52.168;21.296;2023-12-20T13:19:15;1.60;;;1.35;;
55063;SDS011;40963;52.168;21.296;2023-12-20T13:21:40;3.28;;;2.40;;
55063;SDS011;40963;52.168;21.296;2023-12-20T13:24:06;3.08;;;1.95;;
55063;SDS011;40963;52.168;21.296;2023-12-20T13:26:32;4.40;;;3.13;;
55063;SDS011;40963;52.168;21.296;2023-12-20T13:28:58;4.05;;;2.97;;
55063;SDS011;40963;52.168;21.296;2023-12-20T13:31:23;4.90;;;3.08;;
55063;SDS011;40963;52.168;21.296;2023-12-20T13:33:49;4.50;;;2.47;;
55063;SDS011;40963;52.168;21.296;2023-12-20T13:36:17;5.80;;;3.22;;
55063;SDS011;40963;52.168;21.296;2023-12-20T13:38:43;5.90;;;3.40;;
55063;SDS011;40963;52.168;21.296;2023-12-20T13:41:08;5.90;;;3.88;;
55063;SDS011;40963;52.168;21.296;2023-12-20T13:43:34;7.68;;;3.72;;
55063;SDS011;40963;52.168;21.296;2023-12-20T13:46:00;4.95;;;3.38;;
55063;SDS011;40963;52.168;21.296;2023-12-20T13:48:25;7.25;;;3.97;;
55063;SDS011;40963;52.168;21.296;2023-12-20T13:50:51;8.60;;;4.43;;
55063;SDS011;40963;52.168;21.296;2023-12-20T13:53:17;4.47;;;3.28;;
55063;SDS011;40963;52.168;21.296;2023-12-20T13:55:45;7.88;;;3.75;;
55063;SDS011;40963;52.168;21.296;2023-12-20T13:58:11;6.13;;;4.07;;
55063;SDS011;40963;52.168;21.296;2023-12-20T14:00:37;6.70;;;2.83;;
55063;SDS011;40963;52.168;21.296;2023-12-20T14:03:05;4.82;;;3.50;;
55063;SDS011;40963;52.168;21.296;2023-12-20T14:05:32;5.63;;;3.67;;
55063;SDS011;40963;52.168;21.296;2023-12-20T14:07:58;7.43;;;4.75;;
55063;SDS011;40963;52.168;21.296;2023-12-20T14:10:24;5.38;;;3.83;;
55063;SDS011;40963;52.168;21.296;2023-12-20T14:12:51;2.58;;;2.30;;
55063;SDS011;40963;52.168;21.296;2023-12-20T14:15:17;5.80;;;3.40;;
55063;SDS011;40963;52.168;21.296;2023-12-20T14:17:43;3.97;;;2.72;;
55063;SDS011;40963;52.168;21.296;2023-12-20T14:20:09;7.85;;;4.20;;
55063;SDS011;40963;52.168;21.296;2023-12-20T14:22:35;8.25;;;4.60;;
55063;SDS011;40963;52.168;21.296;2023-12-20T14:25:01;10.20;;;3.90;;
55063;SDS011;40963;52.168;21.296;2023-12-20T14:27:27;4.65;;;3.17;;
55063;SDS011;40963;52.168;21.296;2023-12-20T14:29:55;13.02;;;4.10;;
55063;SDS011;40963;52.168;21.296;2023-12-20T14:32:21;5.30;;;3.80;;